Terminal Aerodrome Forecast
Issued by NWS Jacksonville, FL

Home | Current Version | Previous Version | Text Only | Print | Product List | Glossary On
Versions: 1 2 3 4 5 6 7 8 9 10 11 12 13 14
000
FTUS42 KJAX 142300
TAFSSI
TAF
KSSI 142321Z 1500/1524 13008KT P6SM BKN200
     FM150500 20004KT P6SM SCT025 BKN050
     FM151600 14008KT P6SM VCSH SCT030 SCT150=

USA.gov is the U.S. government's official web portal to all federal, state and local government web resources and services.